createdAt,value
2023-03-04T00:00:41.226Z,0
2023-03-04T00:01:41.863Z,0
2023-03-04T00:02:42.482Z,0
2023-03-04T00:03:43.036Z,0
2023-03-04T00:04:43.628Z,0
2023-03-04T00:05:44.227Z,0
2023-03-04T00:06:44.815Z,0
2023-03-04T00:07:45.408Z,0
2023-03-04T00:08:46.018Z,0
2023-03-04T00:09:46.620Z,0
2023-03-04T00:10:47.204Z,0
2023-03-04T00:11:47.797Z,0
2023-03-04T00:12:48.452Z,0
2023-03-04T00:13:49.012Z,0
2023-03-04T00:14:49.617Z,0
2023-03-04T00:15:50.212Z,0
2023-03-04T00:16:50.821Z,0
2023-03-04T00:17:51.401Z,0
2023-03-04T00:18:51.995Z,0
2023-03-04T00:19:52.592Z,0
2023-03-04T00:20:53.186Z,0
2023-03-04T00:21:53.779Z,0
2023-03-04T00:22:54.383Z,0
2023-03-04T00:23:54.966Z,0
2023-03-04T00:24:55.557Z,0
2023-03-04T00:25:56.153Z,0
2023-03-04T00:26:56.747Z,0
2023-03-04T00:27:57.339Z,0
2023-03-04T00:28:57.936Z,0
2023-03-04T00:29:58.527Z,0
2023-03-04T00:30:59.123Z,0
2023-03-04T00:31:59.849Z,0
2023-03-04T00:33:00.481Z,0
2023-03-04T00:34:01.076Z,0
2023-03-04T00:35:01.667Z,0
2023-03-04T00:36:02.259Z,0
2023-03-04T00:37:02.853Z,0
2023-03-04T00:38:03.448Z,0
2023-03-04T00:39:04.041Z,0
2023-03-04T00:40:04.659Z,0
2023-03-04T00:41:05.251Z,0
2023-03-04T00:42:05.840Z,0
2023-03-04T00:43:06.433Z,0
2023-03-04T00:44:07.032Z,0
2023-03-04T00:45:07.623Z,0
2023-03-04T00:46:08.274Z,0
2023-03-04T00:47:08.816Z,0
2023-03-04T00:48:09.411Z,0
2023-03-04T00:49:10.035Z,0
2023-03-04T00:50:10.616Z,0
2023-03-04T00:51:11.213Z,0
2023-03-04T00:52:11.822Z,0
2023-03-04T00:53:12.424Z,0
2023-03-04T00:54:13.013Z,0
2023-03-04T00:55:13.613Z,0
2023-03-04T00:56:14.197Z,0
2023-03-04T00:57:14.808Z,0
2023-03-04T00:58:15.605Z,0
2023-03-04T00:59:16.198Z,0
2023-03-04T01:00:16.789Z,0
2023-03-04T01:01:17.419Z,0
2023-03-04T01:02:18.025Z,0
2023-03-04T01:03:18.564Z,0
2023-03-04T01:04:19.165Z,0
2023-03-04T01:05:19.753Z,0
2023-03-04T01:06:20.350Z,0
2023-03-04T01:07:20.940Z,0
2023-03-04T01:08:21.542Z,0
2023-03-04T01:09:22.127Z,0
2023-03-04T01:10:22.729Z,0
2023-03-04T01:11:23.313Z,0
2023-03-04T01:12:23.920Z,0
2023-03-04T01:13:24.542Z,0
2023-03-04T01:14:25.092Z,0
2023-03-04T01:15:25.685Z,0
2023-03-04T01:16:26.336Z,0
2023-03-04T01:17:26.889Z,0
2023-03-04T01:18:27.484Z,0
2023-03-04T01:19:28.076Z,0
2023-03-04T01:20:28.688Z,0
2023-03-04T01:21:29.285Z,0
2023-03-04T01:22:29.873Z,0
2023-03-04T01:23:30.466Z,0
2023-03-04T01:24:31.061Z,0
2023-03-04T01:25:31.672Z,0
2023-03-04T01:26:32.266Z,0
2023-03-04T01:27:32.856Z,0
2023-03-04T01:28:33.451Z,0
2023-03-04T01:29:34.054Z,0
2023-03-04T01:30:34.686Z,0
2023-03-04T01:31:35.231Z,0
2023-03-04T01:32:35.859Z,0
2023-03-04T01:33:36.436Z,0
2023-03-04T01:34:37.045Z,0
2023-03-04T01:35:37.645Z,0
2023-03-04T01:36:38.221Z,0
2023-03-04T01:37:38.813Z,0
2023-03-04T01:38:39.412Z,0
2023-03-04T01:39:40.011Z,0
2023-03-04T01:40:40.607Z,0
2023-03-04T01:41:41.182Z,0
2023-03-04T01:42:41.776Z,0
2023-03-04T01:43:42.372Z,0
2023-03-04T01:44:42.965Z,0
2023-03-04T01:45:43.580Z,0
2023-03-04T01:46:44.192Z,0
2023-03-04T01:47:44.786Z,0
2023-03-04T01:48:45.402Z,0
2023-03-04T01:49:45.976Z,0
2023-03-04T01:50:46.569Z,0
2023-03-04T01:51:47.167Z,0
2023-03-04T01:52:47.781Z,0
2023-03-04T01:53:48.376Z,0
2023-03-04T01:54:48.979Z,0
2023-03-04T01:55:49.571Z,0
2023-03-04T01:56:50.179Z,0
2023-03-04T01:57:50.774Z,0
2023-03-04T01:58:51.368Z,0
2023-03-04T01:59:51.960Z,0
2023-03-04T02:00:52.555Z,0
2023-03-04T02:01:53.192Z,0
2023-03-04T02:02:53.789Z,0
2023-03-04T02:03:54.417Z,0
2023-03-04T02:04:54.994Z,0
2023-03-04T02:05:55.587Z,0
2023-03-04T02:06:56.187Z,0
2023-03-04T02:07:56.774Z,0
2023-03-04T02:08:57.365Z,0
2023-03-04T02:09:57.962Z,0
2023-03-04T02:10:58.584Z,0
2023-03-04T02:11:59.164Z,0
2023-03-04T02:12:59.767Z,0
2023-03-04T02:14:00.374Z,0
2023-03-04T02:15:00.969Z,0
2023-03-04T02:16:01.611Z,0
2023-03-04T02:17:02.184Z,0
2023-03-04T02:18:02.778Z,0
2023-03-04T02:19:03.409Z,0
2023-03-04T02:20:03.987Z,0
2023-03-04T02:21:04.599Z,0
2023-03-04T02:22:05.192Z,0
2023-03-04T02:23:05.784Z,0
2023-03-04T02:24:06.379Z,0
2023-03-04T02:25:06.981Z,0
2023-03-04T02:26:07.567Z,0
2023-03-04T02:27:08.173Z,0
2023-03-04T02:28:08.758Z,0
2023-03-04T02:29:09.388Z,0
2023-03-04T02:30:09.953Z,0
2023-03-04T02:31:10.545Z,0
2023-03-04T02:32:11.152Z,0
2023-03-04T02:33:11.745Z,0
2023-03-04T02:34:12.341Z,0
2023-03-04T02:35:12.954Z,0
2023-03-04T02:36:13.548Z,0
2023-03-04T02:37:14.139Z,0
2023-03-04T02:38:14.743Z,0
2023-03-04T02:39:15.332Z,0
2023-03-04T02:40:16.027Z,0
2023-03-04T02:41:16.642Z,0
2023-03-04T02:42:17.236Z,0
2023-03-04T02:43:17.843Z,0
2023-03-04T02:44:18.444Z,0
2023-03-04T02:45:19.038Z,0
2023-03-04T02:46:19.656Z,0
2023-03-04T02:47:20.273Z,0
2023-03-04T02:48:20.866Z,0
2023-03-04T02:49:21.459Z,0
2023-03-04T02:50:22.061Z,0
2023-03-04T02:51:22.652Z,0
2023-03-04T02:52:23.244Z,0
2023-03-04T02:53:23.841Z,0
2023-03-04T02:54:24.436Z,0
2023-03-04T02:55:25.059Z,0
2023-03-04T02:56:25.662Z,0
2023-03-04T02:57:26.231Z,0
2023-03-04T02:58:26.822Z,0
2023-03-04T02:59:27.423Z,0
2023-03-04T03:00:28.032Z,0
2023-03-04T03:01:28.651Z,0
2023-03-04T03:02:29.259Z,0
2023-03-04T03:03:29.832Z,0
2023-03-04T03:04:30.421Z,0
2023-03-04T03:05:31.014Z,0
2023-03-04T03:06:31.615Z,0
2023-03-04T03:07:32.200Z,0
2023-03-04T03:08:32.794Z,0
2023-03-04T03:09:33.391Z,0
2023-03-04T03:10:34.000Z,0
2023-03-04T03:11:34.590Z,0
2023-03-04T03:12:35.188Z,0
2023-03-04T03:13:35.800Z,0
2023-03-04T03:14:36.405Z,0
2023-03-04T03:15:37.024Z,0
2023-03-04T03:16:37.667Z,0
2023-03-04T03:17:38.217Z,0
2023-03-04T03:18:38.810Z,0
2023-03-04T03:19:39.401Z,0
2023-03-04T03:20:39.991Z,0
2023-03-04T03:21:40.584Z,0
2023-03-04T03:22:41.175Z,0
2023-03-04T03:23:41.770Z,0
2023-03-04T03:24:42.364Z,0
2023-03-04T03:25:42.955Z,0
2023-03-04T03:26:43.551Z,0
2023-03-04T03:27:44.146Z,0
2023-03-04T03:28:44.746Z,0
2023-03-04T03:29:45.333Z,0
2023-03-04T03:30:45.926Z,0
2023-03-04T03:31:46.580Z,0
2023-03-04T03:32:47.127Z,0
2023-03-04T03:33:47.713Z,0
2023-03-04T03:34:48.308Z,0
2023-03-04T03:35:48.958Z,0
2023-03-04T03:36:49.513Z,0
2023-03-04T03:37:50.108Z,0
2023-03-04T03:38:50.700Z,0
2023-03-04T03:39:51.311Z,0
2023-03-04T03:40:51.904Z,0
2023-03-04T03:41:52.498Z,0
2023-03-04T03:42:53.095Z,0
2023-03-04T03:43:53.685Z,0
2023-03-04T03:44:54.285Z,0
2023-03-04T03:45:54.943Z,0
2023-03-04T03:46:55.547Z,0
2023-03-04T03:47:56.173Z,0
2023-03-04T03:48:56.761Z,0
2023-03-04T03:49:57.347Z,0
2023-03-04T03:50:57.968Z,0
2023-03-04T03:51:58.552Z,0
2023-03-04T03:52:59.150Z,0
2023-03-04T03:53:59.740Z,0
2023-03-04T03:55:01.818Z,0
2023-03-04T03:56:01.946Z,0
2023-03-04T03:57:02.535Z,0
2023-03-04T03:58:03.129Z,0
2023-03-04T03:59:03.721Z,0
2023-03-04T04:00:04.314Z,0
2023-03-04T04:01:04.908Z,0
2023-03-04T04:02:05.596Z,0
2023-03-04T04:03:06.200Z,0
2023-03-04T04:04:06.767Z,0
2023-03-04T04:05:07.364Z,0
2023-03-04T04:06:07.960Z,0
2023-03-04T04:07:08.565Z,0
2023-03-04T04:08:09.156Z,0
2023-03-04T04:09:09.750Z,0
2023-03-04T04:10:10.342Z,0
2023-03-04T04:11:10.997Z,0
2023-03-04T04:12:11.585Z,0
2023-03-04T04:13:12.175Z,0
2023-03-04T04:14:12.792Z,0
2023-03-04T04:15:13.385Z,0
2023-03-04T04:16:14.010Z,0
2023-03-04T04:17:14.567Z,0
2023-03-04T04:18:15.157Z,0
2023-03-04T04:19:15.770Z,0
2023-03-04T04:20:16.362Z,0
2023-03-04T04:21:16.971Z,0
2023-03-04T04:22:17.577Z,0
2023-03-04T04:23:18.164Z,0
2023-03-04T04:24:18.754Z,0
2023-03-04T04:25:19.349Z,0
2023-03-04T04:26:19.940Z,0
2023-03-04T04:27:20.531Z,0
2023-03-04T04:28:21.127Z,0
2023-03-04T04:29:21.717Z,0
2023-03-04T04:30:22.308Z,0
2023-03-04T04:31:22.941Z,0
2023-03-04T04:32:23.591Z,0
2023-03-04T04:33:24.173Z,0
2023-03-04T04:34:24.764Z,0
2023-03-04T04:35:25.399Z,0
2023-03-04T04:36:25.952Z,0
2023-03-04T04:37:26.544Z,0
2023-03-04T04:38:27.136Z,0
2023-03-04T04:39:27.732Z,0
2023-03-04T04:40:28.380Z,0
2023-03-04T04:41:28.927Z,0
2023-03-04T04:42:29.523Z,0
2023-03-04T04:43:30.110Z,0
2023-03-04T04:44:30.705Z,0
2023-03-04T04:45:31.294Z,0
2023-03-04T04:46:31.888Z,0
2023-03-04T04:47:32.490Z,0
2023-03-04T04:48:33.102Z,0
2023-03-04T04:49:33.698Z,0
2023-03-04T04:50:34.285Z,0
2023-03-04T04:51:34.894Z,0
2023-03-04T04:52:35.471Z,0
2023-03-04T04:53:36.061Z,0
2023-03-04T04:54:36.667Z,0
2023-03-04T04:55:37.252Z,0
2023-03-04T04:56:37.846Z,0
2023-03-04T04:57:38.440Z,0
2023-03-04T04:58:39.034Z,0
2023-03-04T04:59:39.624Z,0
2023-03-04T05:00:40.216Z,0
2023-03-04T05:01:40.841Z,0
2023-03-04T05:02:41.410Z,0
2023-03-04T05:03:42.046Z,0
2023-03-04T05:04:42.616Z,0
2023-03-04T05:05:43.211Z,0
2023-03-04T05:06:43.804Z,0
2023-03-04T05:07:44.420Z,0
2023-03-04T05:08:45.030Z,0
2023-03-04T05:09:45.645Z,0
2023-03-04T05:10:46.238Z,0
2023-03-04T05:11:46.831Z,0
2023-03-04T05:12:47.422Z,0
2023-03-04T05:13:48.022Z,0
2023-03-04T05:14:48.608Z,0
2023-03-04T05:15:49.219Z,0
2023-03-04T05:16:49.798Z,0
2023-03-04T05:17:50.394Z,0
2023-03-04T05:18:50.977Z,0
2023-03-04T05:19:51.570Z,0
2023-03-04T05:20:52.172Z,0
2023-03-04T05:21:52.783Z,0
2023-03-04T05:22:53.394Z,0
2023-03-04T05:23:53.988Z,0
2023-03-04T05:24:54.580Z,0
2023-03-04T05:25:55.172Z,0
2023-03-04T05:26:55.766Z,0
2023-03-04T05:27:56.356Z,0
2023-03-04T05:28:56.951Z,0
2023-03-04T05:29:57.561Z,0
2023-03-04T05:30:58.172Z,0
2023-03-04T05:31:58.758Z,0
2023-03-04T05:32:59.362Z,0
2023-03-04T05:33:59.952Z,0
2023-03-04T05:35:00.540Z,0
2023-03-04T05:36:01.202Z,0
2023-03-04T05:37:01.964Z,0
2023-03-04T05:38:02.577Z,0
2023-03-04T05:39:03.176Z,0
2023-03-04T05:40:03.761Z,0
2023-03-04T05:41:04.354Z,0
2023-03-04T05:42:04.967Z,0
2023-03-04T05:43:05.559Z,0
2023-03-04T05:44:06.154Z,0
2023-03-04T05:45:06.747Z,0
2023-03-04T05:46:07.391Z,0
2023-03-04T05:47:07.950Z,0
2023-03-04T05:48:08.574Z,0
2023-03-04T05:49:09.159Z,0
2023-03-04T05:50:09.753Z,0
2023-03-04T05:51:10.356Z,0
2023-03-04T05:52:10.943Z,0
2023-03-04T05:53:11.529Z,0
2023-03-04T05:54:12.126Z,5
2023-03-04T05:55:12.720Z,5
2023-03-04T05:56:13.317Z,5
2023-03-04T05:57:13.907Z,5
2023-03-04T05:58:14.507Z,5
2023-03-04T05:59:15.123Z,11
2023-03-04T06:00:15.729Z,11
2023-03-04T06:01:16.319Z,11
2023-03-04T06:02:16.956Z,11
2023-03-04T06:03:17.532Z,16
2023-03-04T06:04:18.115Z,16
2023-03-04T06:05:18.709Z,22
2023-03-04T06:06:19.313Z,22
2023-03-04T06:07:19.920Z,22
2023-03-04T06:08:20.518Z,22
2023-03-04T06:09:21.152Z,28
2023-03-04T06:10:21.730Z,28
2023-03-04T06:11:22.344Z,28
2023-03-04T06:12:22.944Z,33
2023-03-04T06:13:23.540Z,33
2023-03-04T06:14:24.227Z,33
2023-03-04T06:15:24.813Z,33
2023-03-04T06:16:25.459Z,39
2023-03-04T06:17:26.055Z,45
2023-03-04T06:18:26.689Z,50
2023-03-04T06:19:27.266Z,56
2023-03-04T06:20:27.863Z,56
2023-03-04T06:21:28.479Z,56
2023-03-04T06:22:29.075Z,56
2023-03-04T06:23:29.678Z,67
2023-03-04T06:24:30.269Z,67
2023-03-04T06:25:30.867Z,67
2023-03-04T06:26:31.463Z,73
2023-03-04T06:27:32.066Z,84
2023-03-04T06:28:32.660Z,84
2023-03-04T06:29:33.256Z,78
2023-03-04T06:30:33.850Z,78
2023-03-04T06:31:34.580Z,78
2023-03-04T06:32:35.191Z,78
2023-03-04T06:33:35.818Z,78
2023-03-04T06:34:36.401Z,84
2023-03-04T06:35:37.029Z,95
2023-03-04T06:36:37.593Z,95
2023-03-04T06:37:38.198Z,101
2023-03-04T06:38:38.812Z,101
2023-03-04T06:39:39.426Z,101
2023-03-04T06:40:40.035Z,101
2023-03-04T06:41:40.643Z,106
2023-03-04T06:42:41.235Z,118
2023-03-04T06:43:41.833Z,129
2023-03-04T06:44:42.435Z,135
2023-03-04T06:45:43.028Z,140
2023-03-04T06:46:43.669Z,151
2023-03-04T06:47:44.240Z,163
2023-03-04T06:48:44.838Z,146
2023-03-04T06:49:45.433Z,157
2023-03-04T06:50:46.030Z,174
2023-03-04T06:51:46.628Z,163
2023-03-04T06:52:47.230Z,163
2023-03-04T06:53:47.829Z,174
2023-03-04T06:54:48.426Z,157
2023-03-04T06:55:49.028Z,157
2023-03-04T06:56:49.647Z,157
2023-03-04T06:57:50.243Z,157
2023-03-04T06:58:50.842Z,174
2023-03-04T06:59:51.435Z,163
2023-03-04T07:00:52.064Z,146
2023-03-04T07:01:52.632Z,135
2023-03-04T07:02:55.120Z,163
2023-03-04T07:03:54.923Z,157
2023-03-04T07:04:55.514Z,163
2023-03-04T07:05:56.113Z,157
2023-03-04T07:06:56.714Z,180
2023-03-04T07:07:57.329Z,168
2023-03-04T07:08:57.935Z,174
2023-03-04T07:09:58.549Z,202
2023-03-04T07:10:59.167Z,219
2023-03-04T07:11:59.773Z,202
2023-03-04T07:13:00.379Z,202
2023-03-04T07:14:00.999Z,191
2023-03-04T07:15:01.575Z,196
2023-03-04T07:16:02.222Z,196
2023-03-04T07:17:02.806Z,196
2023-03-04T07:18:03.456Z,185
2023-03-04T07:19:04.021Z,208
2023-03-04T07:20:04.636Z,202
2023-03-04T07:21:05.255Z,225
2023-03-04T07:22:05.851Z,236
2023-03-04T07:23:06.449Z,196
2023-03-04T07:24:07.049Z,208
2023-03-04T07:25:07.643Z,230
2023-03-04T07:26:08.239Z,258
2023-03-04T07:27:08.839Z,258
2023-03-04T07:28:09.433Z,258
2023-03-04T07:29:10.040Z,270
2023-03-04T07:30:10.648Z,264
2023-03-04T07:31:11.248Z,236
2023-03-04T07:32:12.052Z,225
2023-03-04T07:33:12.479Z,225
2023-03-04T07:34:13.083Z,241
2023-03-04T07:35:13.673Z,225
2023-03-04T07:36:14.270Z,202
2023-03-04T07:37:14.868Z,208
2023-03-04T07:38:15.468Z,180
2023-03-04T07:39:16.066Z,174
2023-03-04T07:40:16.665Z,213
2023-03-04T07:41:17.260Z,230
2023-03-04T07:42:17.860Z,275
2023-03-04T07:43:18.460Z,320
2023-03-04T07:44:19.075Z,365
2023-03-04T07:45:19.677Z,405
2023-03-04T07:46:20.282Z,438
2023-03-04T07:47:20.872Z,405
2023-03-04T07:48:21.471Z,320
2023-03-04T07:49:22.069Z,298
2023-03-04T07:50:22.670Z,270
2023-03-04T07:51:23.286Z,275
2023-03-04T07:52:23.868Z,298
2023-03-04T07:53:24.466Z,410
2023-03-04T07:54:25.067Z,489
2023-03-04T07:55:25.667Z,410
2023-03-04T07:56:26.292Z,337
2023-03-04T07:57:26.909Z,270
2023-03-04T07:58:27.531Z,247
2023-03-04T07:59:28.140Z,253
2023-03-04T08:00:28.770Z,253
2023-03-04T08:01:29.375Z,331
2023-03-04T08:02:30.088Z,382
2023-03-04T08:03:30.667Z,331
2023-03-04T08:04:31.307Z,236
2023-03-04T08:05:31.862Z,247
2023-03-04T08:06:32.463Z,264
2023-03-04T08:07:33.057Z,264
2023-03-04T08:08:33.659Z,264
2023-03-04T08:09:34.276Z,270
2023-03-04T08:10:34.874Z,247
2023-03-04T08:11:35.481Z,241
2023-03-04T08:12:36.070Z,286
2023-03-04T08:13:36.669Z,337
2023-03-04T08:14:37.274Z,264
2023-03-04T08:15:38.004Z,270
2023-03-04T08:16:38.501Z,376
2023-03-04T08:17:39.099Z,438
2023-03-04T08:18:39.722Z,461
2023-03-04T08:19:40.294Z,450
2023-03-04T08:20:40.924Z,343
2023-03-04T08:21:41.519Z,360
2023-03-04T08:22:42.123Z,393
2023-03-04T08:23:42.780Z,320
2023-03-04T08:24:43.356Z,315
2023-03-04T08:25:43.975Z,354
2023-03-04T08:26:44.581Z,376
2023-03-04T08:27:45.172Z,388
2023-03-04T08:28:45.822Z,427
2023-03-04T08:29:46.398Z,444
2023-03-04T08:30:47.036Z,416
2023-03-04T08:31:49.066Z,416
2023-03-04T08:32:49.303Z,450
2023-03-04T08:33:49.878Z,461
2023-03-04T08:34:50.477Z,596
2023-03-04T08:35:51.131Z,528
2023-03-04T08:36:51.680Z,478
2023-03-04T08:37:52.293Z,427
2023-03-04T08:38:52.892Z,360
2023-03-04T08:39:53.490Z,376
2023-03-04T08:40:54.091Z,405
2023-03-04T08:41:54.688Z,388
2023-03-04T08:42:55.283Z,337
2023-03-04T08:43:55.891Z,309
2023-03-04T08:44:56.480Z,298
2023-03-04T08:45:57.121Z,298
2023-03-04T08:46:57.682Z,309
2023-03-04T08:47:58.270Z,326
2023-03-04T08:48:58.872Z,320
2023-03-04T08:49:59.465Z,331
2023-03-04T08:51:00.090Z,320
2023-03-04T08:52:00.659Z,331
2023-03-04T08:53:01.257Z,326
2023-03-04T08:54:01.852Z,309
2023-03-04T08:55:02.449Z,393
2023-03-04T08:56:03.056Z,455
2023-03-04T08:57:03.649Z,360
2023-03-04T08:58:04.246Z,309
2023-03-04T08:59:04.845Z,253
2023-03-04T09:00:05.446Z,241
2023-03-04T09:01:06.044Z,236
2023-03-04T09:02:06.678Z,236
2023-03-04T09:03:07.278Z,208
2023-03-04T09:04:07.883Z,213
2023-03-04T09:05:08.480Z,230
2023-03-04T09:06:09.071Z,275
2023-03-04T09:07:09.668Z,270
2023-03-04T09:08:10.266Z,219
2023-03-04T09:09:10.863Z,219
2023-03-04T09:10:11.458Z,264
2023-03-04T09:11:12.058Z,343
2023-03-04T09:12:12.652Z,348
2023-03-04T09:13:13.257Z,298
2023-03-04T09:14:13.850Z,303
2023-03-04T09:15:14.449Z,354
2023-03-04T09:16:15.145Z,405
2023-03-04T09:17:15.662Z,410
2023-03-04T09:18:16.263Z,393
2023-03-04T09:19:16.859Z,354
2023-03-04T09:20:17.456Z,343
2023-03-04T09:21:18.055Z,348
2023-03-04T09:22:18.675Z,388
2023-03-04T09:23:19.275Z,365
2023-03-04T09:24:19.872Z,472
2023-03-04T09:25:20.489Z,495
2023-03-04T09:26:21.086Z,556
2023-03-04T09:27:21.682Z,511
2023-03-04T09:28:22.288Z,545
2023-03-04T09:29:22.904Z,511
2023-03-04T09:30:23.517Z,613
2023-03-04T09:31:24.170Z,455
2023-03-04T09:32:24.826Z,393
2023-03-04T09:33:25.387Z,360
2023-03-04T09:34:25.988Z,388
2023-03-04T09:35:26.604Z,421
2023-03-04T09:36:27.240Z,433
2023-03-04T09:37:27.794Z,354
2023-03-04T09:38:28.395Z,511
2023-03-04T09:39:28.993Z,421
2023-03-04T09:40:29.594Z,421
2023-03-04T09:41:30.196Z,433
2023-03-04T09:42:30.791Z,551
2023-03-04T09:43:31.398Z,438
2023-03-04T09:44:31.997Z,416
2023-03-04T09:45:32.603Z,433
2023-03-04T09:46:33.218Z,438
2023-03-04T09:47:33.796Z,540
2023-03-04T09:48:34.398Z,466
2023-03-04T09:49:34.997Z,478
2023-03-04T09:50:35.595Z,483
2023-03-04T09:51:36.199Z,511
2023-03-04T09:52:36.794Z,438
2023-03-04T09:53:37.410Z,450
2023-03-04T09:54:38.010Z,517
2023-03-04T09:55:38.608Z,416
2023-03-04T09:56:39.222Z,371
2023-03-04T09:57:39.828Z,438
2023-03-04T09:58:40.424Z,500
2023-03-04T09:59:41.021Z,545
2023-03-04T10:00:41.706Z,618
2023-03-04T10:01:42.283Z,528
2023-03-04T10:02:42.895Z,433
2023-03-04T10:03:43.542Z,427
2023-03-04T10:04:44.135Z,410
2023-03-04T10:05:44.715Z,466
2023-03-04T10:06:45.314Z,433
2023-03-04T10:07:45.913Z,365
2023-03-04T10:08:46.523Z,517
2023-03-04T10:09:47.115Z,506
2023-03-04T10:10:47.791Z,354
2023-03-04T10:11:48.400Z,331
2023-03-04T10:12:48.999Z,281
2023-03-04T10:13:49.597Z,253
2023-03-04T10:14:50.196Z,225
2023-03-04T10:15:50.951Z,298
2023-03-04T10:16:51.416Z,421
2023-03-04T10:17:52.007Z,343
2023-03-04T10:18:52.602Z,309
2023-03-04T10:19:53.222Z,371
2023-03-04T10:20:53.818Z,331
2023-03-04T10:21:54.420Z,264
2023-03-04T10:22:55.035Z,309
2023-03-04T10:23:56.752Z,315
2023-03-04T10:24:56.240Z,270
2023-03-04T10:25:56.835Z,241
2023-03-04T10:26:57.434Z,219
2023-03-04T10:27:58.048Z,253
2023-03-04T10:28:58.628Z,258
2023-03-04T10:29:59.223Z,337
2023-03-04T10:30:59.820Z,506
2023-03-04T10:32:00.700Z,585
2023-03-04T10:33:01.030Z,618
2023-03-04T10:34:01.628Z,697
2023-03-04T10:35:02.244Z,770
2023-03-04T10:36:02.891Z,883
2023-03-04T10:37:03.471Z,1046
2023-03-04T10:38:04.096Z,1186
2023-03-04T10:39:04.681Z,1423
2023-03-04T10:40:05.284Z,1468
2023-03-04T10:41:05.881Z,1265
2023-03-04T10:42:06.517Z,1096
2023-03-04T10:43:07.107Z,900
2023-03-04T10:44:07.703Z,826
2023-03-04T10:45:08.289Z,793
2023-03-04T10:46:08.969Z,753
2023-03-04T10:47:09.518Z,798
2023-03-04T10:48:10.117Z,686
2023-03-04T10:49:10.715Z,590
2023-03-04T10:50:11.312Z,630
2023-03-04T10:51:11.911Z,680
2023-03-04T10:52:12.534Z,720
2023-03-04T10:53:13.124Z,562
2023-03-04T10:54:13.722Z,568
2023-03-04T10:55:14.319Z,686
2023-03-04T10:56:14.917Z,652
2023-03-04T10:57:15.513Z,663
2023-03-04T10:58:16.109Z,793
2023-03-04T10:59:16.715Z,742
2023-03-04T11:00:17.309Z,641
2023-03-04T11:01:17.945Z,607
2023-03-04T11:02:18.511Z,618
2023-03-04T11:03:19.103Z,568
2023-03-04T11:04:19.699Z,551
2023-03-04T11:05:20.299Z,556
2023-03-04T11:06:20.917Z,556
2023-03-04T11:07:21.513Z,618
2023-03-04T11:08:22.122Z,663
2023-03-04T11:09:22.726Z,686
2023-03-04T11:10:23.343Z,663
2023-03-04T11:11:23.961Z,720
2023-03-04T11:12:24.557Z,810
2023-03-04T11:13:25.184Z,888
2023-03-04T11:14:25.789Z,967
2023-03-04T11:15:26.373Z,984
2023-03-04T11:16:27.002Z,978
2023-03-04T11:17:27.582Z,916
2023-03-04T11:18:28.212Z,933
2023-03-04T11:19:28.790Z,1147
2023-03-04T11:20:29.414Z,2300
2023-03-04T11:21:30.057Z,2508
2023-03-04T11:22:30.634Z,1760
2023-03-04T11:23:31.244Z,1771
2023-03-04T11:24:31.839Z,1760
2023-03-04T11:25:32.433Z,1496
2023-03-04T11:26:33.045Z,1552
2023-03-04T11:27:33.637Z,2283
2023-03-04T11:28:34.236Z,1788
2023-03-04T11:29:34.841Z,1496
2023-03-04T11:30:35.466Z,1704
2023-03-04T11:31:36.059Z,1980
2023-03-04T11:32:36.696Z,3853
2023-03-04T11:33:37.285Z,2345
2023-03-04T11:34:37.920Z,1035
2023-03-04T11:35:38.541Z,877
2023-03-04T11:36:39.176Z,860
2023-03-04T11:37:39.728Z,916
2023-03-04T11:38:40.338Z,973
2023-03-04T11:39:40.930Z,995
2023-03-04T11:40:41.547Z,973
2023-03-04T11:41:42.137Z,967
2023-03-04T11:42:42.755Z,995
2023-03-04T11:43:43.356Z,894
2023-03-04T11:44:43.955Z,843
2023-03-04T11:45:44.579Z,770
2023-03-04T11:46:45.170Z,720
2023-03-04T11:47:45.754Z,742
2023-03-04T11:48:46.373Z,669
2023-03-04T11:49:46.975Z,630
2023-03-04T11:50:47.566Z,568
2023-03-04T11:51:48.170Z,540
2023-03-04T11:52:48.767Z,472
2023-03-04T11:53:49.368Z,399
2023-03-04T11:54:49.964Z,433
2023-03-04T11:55:50.564Z,601
2023-03-04T11:56:51.166Z,815
2023-03-04T11:57:51.763Z,950
2023-03-04T11:58:52.356Z,945
2023-03-04T11:59:52.954Z,877
2023-03-04T12:00:53.551Z,781
2023-03-04T12:01:54.178Z,680
2023-03-04T12:02:54.776Z,635
2023-03-04T12:03:55.452Z,601
2023-03-04T12:04:56.053Z,596
2023-03-04T12:05:56.637Z,601
2023-03-04T12:06:57.231Z,534
2023-03-04T12:07:57.828Z,444
2023-03-04T12:08:58.449Z,405
2023-03-04T12:09:59.062Z,405
2023-03-04T12:10:59.643Z,388
2023-03-04T12:12:00.245Z,365
2023-03-04T12:13:00.842Z,376
2023-03-04T12:14:01.441Z,416
2023-03-04T12:15:02.067Z,450
2023-03-04T12:16:02.666Z,421
2023-03-04T12:17:03.261Z,405
2023-03-04T12:18:03.851Z,444
2023-03-04T12:19:04.448Z,517
2023-03-04T12:20:05.069Z,663
2023-03-04T12:21:05.665Z,753
2023-03-04T12:22:06.294Z,855
2023-03-04T12:23:06.880Z,967
2023-03-04T12:24:07.496Z,1119
2023-03-04T12:25:08.078Z,1051
2023-03-04T12:26:08.676Z,933
2023-03-04T12:27:09.274Z,815
2023-03-04T12:28:09.874Z,669
2023-03-04T12:29:10.475Z,568
2023-03-04T12:30:11.091Z,562
2023-03-04T12:31:11.749Z,573
2023-03-04T12:32:12.350Z,618
2023-03-04T12:33:13.014Z,669
2023-03-04T12:34:13.563Z,691
2023-03-04T12:35:14.161Z,714
2023-03-04T12:36:14.758Z,759
2023-03-04T12:37:15.777Z,838
2023-03-04T12:38:16.347Z,866
2023-03-04T12:39:17.081Z,843
2023-03-04T12:40:17.657Z,883
2023-03-04T12:41:18.302Z,1051
2023-03-04T12:42:19.404Z,1248
2023-03-04T12:43:20.289Z,1366
2023-03-04T12:44:20.830Z,1417
2023-03-04T12:45:21.452Z,1991
2023-03-04T12:46:22.129Z,1963
2023-03-04T12:47:22.703Z,1378
2023-03-04T12:48:23.301Z,1355
2023-03-04T12:49:23.899Z,1243
2023-03-04T12:50:24.505Z,1102
2023-03-04T12:51:25.101Z,1018
2023-03-04T12:52:25.699Z,1001
2023-03-04T12:53:26.299Z,928
2023-03-04T12:54:26.903Z,894
2023-03-04T12:55:27.522Z,1276
2023-03-04T12:56:28.122Z,1552
2023-03-04T12:57:28.719Z,961
2023-03-04T12:58:29.317Z,866
2023-03-04T12:59:29.916Z,810
2023-03-04T13:00:30.522Z,781
2023-03-04T13:01:31.116Z,742
2023-03-04T13:02:31.777Z,697
2023-03-04T13:03:32.424Z,725
2023-03-04T13:04:33.055Z,641
2023-03-04T13:05:33.656Z,540
2023-03-04T13:06:34.287Z,466
2023-03-04T13:07:34.871Z,489
2023-03-04T13:08:35.473Z,523
2023-03-04T13:09:36.069Z,495
2023-03-04T13:10:36.667Z,495
2023-03-04T13:11:37.266Z,511
2023-03-04T13:12:37.866Z,511
2023-03-04T13:13:38.496Z,551
2023-03-04T13:14:39.075Z,635
2023-03-04T13:15:39.685Z,748
2023-03-04T13:16:40.276Z,849
2023-03-04T13:17:43.232Z,922
2023-03-04T13:18:42.476Z,945
2023-03-04T13:19:43.080Z,1175
2023-03-04T13:20:43.680Z,911
2023-03-04T13:21:44.274Z,905
2023-03-04T13:22:44.868Z,922
2023-03-04T13:23:45.469Z,928
2023-03-04T13:24:46.071Z,866
2023-03-04T13:25:46.680Z,781
2023-03-04T13:26:47.287Z,708
2023-03-04T13:27:47.887Z,663
2023-03-04T13:28:48.485Z,630
2023-03-04T13:29:49.082Z,613
2023-03-04T13:30:49.712Z,635
2023-03-04T13:31:50.279Z,641
2023-03-04T13:32:50.879Z,585
2023-03-04T13:33:51.476Z,523
2023-03-04T13:34:52.077Z,495
2023-03-04T13:35:52.832Z,478
2023-03-04T13:36:53.544Z,455
2023-03-04T13:37:54.143Z,427
2023-03-04T13:38:54.740Z,421
2023-03-04T13:39:55.341Z,444
2023-03-04T13:40:55.938Z,450
2023-03-04T13:41:56.543Z,455
2023-03-04T13:42:57.155Z,461
2023-03-04T13:43:57.778Z,483
2023-03-04T13:44:58.372Z,528
2023-03-04T13:45:58.966Z,562
2023-03-04T13:46:59.591Z,568
2023-03-04T13:48:00.174Z,585
2023-03-04T13:49:00.788Z,618
2023-03-04T13:50:01.387Z,675
2023-03-04T13:51:02.013Z,708
2023-03-04T13:52:02.603Z,759
2023-03-04T13:53:03.204Z,753
2023-03-04T13:54:03.807Z,720
2023-03-04T13:55:04.406Z,731
2023-03-04T13:56:05.000Z,736
2023-03-04T13:57:05.600Z,765
2023-03-04T13:58:06.198Z,798
2023-03-04T13:59:06.801Z,860
2023-03-04T14:00:07.413Z,916
2023-03-04T14:01:08.106Z,922
2023-03-04T14:02:08.666Z,877
2023-03-04T14:03:09.257Z,798
2023-03-04T14:04:09.864Z,765
2023-03-04T14:05:10.454Z,742
2023-03-04T14:06:11.060Z,742
2023-03-04T14:07:11.674Z,736
2023-03-04T14:08:12.269Z,759
2023-03-04T14:09:12.873Z,776
2023-03-04T14:10:13.524Z,731
2023-03-04T14:11:14.085Z,686
2023-03-04T14:12:14.683Z,669
2023-03-04T14:13:15.283Z,658
2023-03-04T14:14:15.881Z,686
2023-03-04T14:15:16.488Z,714
2023-03-04T14:16:17.114Z,680
2023-03-04T14:17:17.698Z,556
2023-03-04T14:18:18.289Z,472
2023-03-04T14:19:18.881Z,427